createdAt,value
2018-10-09T00:09:24.635Z,7.4
2018-10-09T00:19:38.557Z,7.3
2018-10-09T00:29:51.971Z,7.2
2018-10-09T00:40:06.166Z,7.1
2018-10-09T00:50:20.329Z,7.0
2018-10-09T01:00:34.416Z,6.9
2018-10-09T01:10:48.593Z,6.8
2018-10-09T01:21:01.806Z,6.7
2018-10-09T01:31:15.305Z,6.6
2018-10-09T01:41:29.211Z,6.5
2018-10-09T01:51:42.413Z,6.4
2018-10-09T02:02:27.047Z,6.3
2018-10-09T02:12:40.507Z,6.3
2018-10-09T02:22:53.648Z,6.2
2018-10-09T02:33:38.576Z,6.0
2018-10-09T02:43:49.668Z,6.0
2018-10-09T02:54:01.154Z,6.0
2018-10-09T03:04:14.964Z,5.9
2018-10-09T03:14:26.695Z,5.8
2018-10-09T03:24:40.636Z,5.8
2018-10-09T03:34:53.949Z,5.7
2018-10-09T03:45:07.287Z,5.6
2018-10-09T03:55:24.044Z,5.6
2018-10-09T04:05:37.624Z,5.5
2018-10-09T04:15:51.608Z,5.5
2018-10-09T04:26:05.240Z,5.4
2018-10-09T04:36:19.217Z,5.4
2018-10-09T04:46:32.441Z,5.3
2018-10-09T04:56:45.536Z,5.2
2018-10-09T08:51:44.267Z,16.8
2018-10-09T09:03:17.905Z,20.1
2018-10-09T09:28:01.922Z,21.5
2018-10-09T09:59:40.077Z,26.0
2018-10-09T10:35:25.076Z,28.7
2018-10-09T10:47:07.998Z,28.6
2018-10-09T10:57:24.762Z,28.5
2018-10-09T11:09:45.590Z,27.4
2018-10-09T11:27:19.808Z,26.1
2018-10-09T11:39:59.863Z,26.3
2018-10-09T11:50:18.478Z,26.3
2018-10-09T13:16:46.073Z,28.0
2018-10-09T13:45:49.077Z,27.5
2018-10-09T13:56:12.252Z,26.7
2018-10-09T14:07:17.158Z,25.9
2018-10-09T14:18:30.203Z,25.7
2018-10-09T14:29:52.441Z,25.7
2018-10-09T14:40:59.567Z,25.7
2018-10-09T14:52:42.716Z,25.7
2018-10-09T15:02:58.003Z,25.7
2018-10-09T15:13:12.122Z,25.5
2018-10-09T15:23:25.967Z,25.1
2018-10-09T15:33:37.098Z,24.4
2018-10-09T15:44:22.133Z,22.9
2018-10-09T15:55:07.552Z,22.2
2018-10-09T16:05:21.005Z,22.2
2018-10-09T16:18:00.512Z,21.6
2018-10-09T16:28:14.954Z,20.9
2018-10-09T16:38:29.073Z,20.1
2018-10-09T16:48:43.335Z,19.5
2018-10-09T16:58:57.378Z,18.9
2018-10-09T17:09:11.972Z,18.3
2018-10-09T17:20:26.194Z,17.2
2018-10-09T17:42:50.693Z,16.1
2018-10-09T17:54:36.695Z,15.5
2018-10-09T18:05:51.157Z,15.0
2018-10-09T20:50:43.456Z,12.0
2018-10-09T21:01:03.017Z,11.9
2018-10-09T21:13:09.807Z,10.5
2018-10-09T21:24:21.670Z,10.5
2018-10-09T21:38:30.567Z,9.8
2018-10-09T21:50:48.980Z,9.5
2018-10-09T22:04:06.473Z,9.3
2018-10-09T22:17:29.061Z,9.1
2018-10-09T22:29:20.026Z,8.9
2018-10-09T22:43:20.952Z,8.7
2018-10-09T22:55:45.668Z,8.7
2018-10-09T23:19:30.553Z,8.4
2018-10-09T23:42:33.024Z,8.1
2018-10-09T23:54:30.555Z,7.9
